Loodiep — A8ZO7 — position and weather

sailwx.info

Track history (hours):
 
Tides and Currents Weather Stations Pressure Air Temp Water Temp Dewpoint Dewpoint Depression Visibility Wind Speed Wind Dir Waves Ship Positions

Loodiep

Last reported at 2016-Jun-27 16:20 UTC. Time now 2016-Jun-29 12:51 UTC.
Position N 31°59' E 034°01'.

Length 108 m; draft 7.2 m.

Type: Cargo ship. MMSI: 636015263.

Date/timePositionNaut miles runAvg speedWind from/ knotsBaromVisibWave heightAir tempDewpointWater temp
2016-Jun-27 16:20N 31°59' E 034°01'7 9.3
2016-Jun-27 15:33N 31°57' E 034°10'9 9.4
2016-Jun-27 14:33N 31°54' E 034°20'10 9.3
2016-Jun-27 13:32N 31°52' E 034°31'4 0.2
2016-Jun-26 09:27N 31°51' E 034°36'1 0.1
2016-Jun-25 13:25N 31°50' E 034°36'0 0.0
2016-Jun-25 12:31N 31°50' E 034°36'0 0.0
2016-Jun-25 11:31N 31°50' E 034°36'0 0.0
2016-Jun-25 10:31N 31°50' E 034°36'18 2.6
2016-Jun-25 03:26N 31°53' E 034°14'2310.6
2016-Jun-25 01:13N 31°51' E 033°47'810.2
2016-Jun-25 00:28N 31°50' E 033°38'910.0
2016-Jun-24 23:33N 31°49' E 033°27'10 9.8
2016-Jun-24 22:32N 31°49' E 033°15'1110.1
2016-Jun-24 21:29N 31°48' E 033°03'910.2
2016-Jun-24 20:33N 31°48' E 032°52'1010.2
2016-Jun-24 19:33N 31°48' E 032°40'1010.1
2016-Jun-24 18:33N 31°47' E 032°28'1310.1
2016-Jun-24 17:15N 31°45' E 032°13'26 9.5
2016-Jun-24 14:33N 31°45' E 031°42'5 2.5
2016-Jun-24 12:30N 31°40' E 031°42'0 0.0
2016-Jun-24 04:15N 31°40' E 031°42'0 0.0
2016-Jun-23 12:24N 31°40' E 031°42'0 0.0
2016-Jun-23 11:27N 31°40' E 031°42'0 0.0
2016-Jun-23 10:33N 31°40' E 031°42'0 0.0
2016-Jun-23 09:33N 31°40' E 031°42'0 0.0
2016-Jun-23 08:06N 31°40' E 031°42'0 0.0
2016-Jun-23 07:33N 31°40' E 031°42'0 0.0
2016-Jun-23 05:33N 31°40' E 031°42'0 0.0
2016-Jun-22 20:33N 31°40' E 031°42'0 0.0
2016-Jun-22 13:09N 31°40' E 031°42'0 0.0
2016-Jun-22 11:33N 31°40' E 031°42'0 0.0
2016-Jun-22 10:33N 31°40' E 031°42'0 0.0
2016-Jun-22 09:21N 31°40' E 031°42'0 0.0
2016-Jun-22 02:09N 31°40' E 031°42'0 0.0
2016-Jun-21 22:06N 31°40' E 031°42'0 0.0
2016-Jun-21 21:33N 31°40' E 031°42'0 0.0
2016-Jun-21 20:33N 31°40' E 031°42'0 0.0
2016-Jun-21 19:33N 31°40' E 031°42'0 0.0
2016-Jun-21 17:27N 31°40' E 031°42'0 0.0
2016-Jun-21 16:32N 31°40' E 031°42'0 0.0
2016-Jun-21 15:32N 31°40' E 031°42'0 0.0
2016-Jun-21 14:26N 31°40' E 031°42'0 0.0
2016-Jun-21 13:32N 31°40' E 031°42'0 0.0
2016-Jun-21 12:33N 31°40' E 031°42'0 0.0
2016-Jun-21 11:33N 31°40' E 031°42'0 0.0
2016-Jun-21 10:21N 31°40' E 031°42'0 0.0
2016-Jun-21 09:33N 31°40' E 031°42'0 0.0
2016-Jun-21 08:33N 31°40' E 031°42'0 0.0
2016-Jun-21 07:27N 31°40' E 031°42'0 0.0
2016-Jun-21 06:33N 31°40' E 031°42'0 0.0
2016-Jun-21 00:21N 31°40' E 031°42'0 0.0
2016-Jun-20 23:33N 31°40' E 031°42'0 0.0
2016-Jun-20 10:30N 31°40' E 031°42'0 0.0
2016-Jun-20 09:33N 31°40' E 031°42'0 0.0
2016-Jun-20 08:30N 31°40' E 031°42'0 0.0
2016-Jun-20 07:33N 31°40' E 031°42'0 0.0
2016-Jun-20 06:33N 31°40' E 031°42'14 0.4
2016-Jun-18 21:28N 31°27' E 031°46'0 0.0
2016-Jun-18 15:19N 31°27' E 031°46'0 0.0
2016-Jun-18 14:31N 31°27' E 031°46'  
Track history (hours):
 
Tides and Currents Weather Stations Pressure Air Temp Water Temp Dewpoint Dewpoint Depression Visibility Wind Speed Wind Dir Waves Ship Positions

Loodiep

Last reported at 2016-Jun-27 16:20 UTC. Time now 2016-Jun-29 12:51 UTC.
Position N 31°59' E 034°01'.

Length 108 m; draft 7.2 m.

Type: Cargo ship. MMSI: 636015263.

Date/timePositionNaut miles runAvg speedWind from/ knotsBaromVisibWave heightAir tempDewpointWater temp
2016-Jun-27 16:20N 31°59' E 034°01'7 9.3
2016-Jun-27 15:33N 31°57' E 034°10'9 9.4
2016-Jun-27 14:33N 31°54' E 034°20'10 9.3
2016-Jun-27 13:32N 31°52' E 034°31'4 0.2
2016-Jun-26 09:27N 31°51' E 034°36'1 0.1
2016-Jun-25 13:25N 31°50' E 034°36'0 0.0
2016-Jun-25 12:31N 31°50' E 034°36'0 0.0
2016-Jun-25 11:31N 31°50' E 034°36'0 0.0
2016-Jun-25 10:31N 31°50' E 034°36'18 2.6
2016-Jun-25 03:26N 31°53' E 034°14'2310.6
2016-Jun-25 01:13N 31°51' E 033°47'810.2
2016-Jun-25 00:28N 31°50' E 033°38'910.0
2016-Jun-24 23:33N 31°49' E 033°27'10 9.8
2016-Jun-24 22:32N 31°49' E 033°15'1110.1
2016-Jun-24 21:29N 31°48' E 033°03'910.2
2016-Jun-24 20:33N 31°48' E 032°52'1010.2
2016-Jun-24 19:33N 31°48' E 032°40'1010.1
2016-Jun-24 18:33N 31°47' E 032°28'1310.1
2016-Jun-24 17:15N 31°45' E 032°13'26 9.5
2016-Jun-24 14:33N 31°45' E 031°42'5 2.5
2016-Jun-24 12:30N 31°40' E 031°42'0 0.0
2016-Jun-24 04:15N 31°40' E 031°42'0 0.0
2016-Jun-23 12:24N 31°40' E 031°42'0 0.0
2016-Jun-23 11:27N 31°40' E 031°42'0 0.0
2016-Jun-23 10:33N 31°40' E 031°42'0 0.0
2016-Jun-23 09:33N 31°40' E 031°42'0 0.0
2016-Jun-23 08:06N 31°40' E 031°42'0 0.0
2016-Jun-23 07:33N 31°40' E 031°42'0 0.0
2016-Jun-23 05:33N 31°40' E 031°42'0 0.0
2016-Jun-22 20:33N 31°40' E 031°42'0 0.0
2016-Jun-22 13:09N 31°40' E 031°42'0 0.0
2016-Jun-22 11:33N 31°40' E 031°42'0 0.0
2016-Jun-22 10:33N 31°40' E 031°42'0 0.0
2016-Jun-22 09:21N 31°40' E 031°42'0 0.0
2016-Jun-22 02:09N 31°40' E 031°42'0 0.0
2016-Jun-21 22:06N 31°40' E 031°42'0 0.0
2016-Jun-21 21:33N 31°40' E 031°42'0 0.0
2016-Jun-21 20:33N 31°40' E 031°42'0 0.0
2016-Jun-21 19:33N 31°40' E 031°42'0 0.0
2016-Jun-21 17:27N 31°40' E 031°42'0 0.0
2016-Jun-21 16:32N 31°40' E 031°42'0 0.0
2016-Jun-21 15:32N 31°40' E 031°42'0 0.0
2016-Jun-21 14:26N 31°40' E 031°42'0 0.0
2016-Jun-21 13:32N 31°40' E 031°42'0 0.0
2016-Jun-21 12:33N 31°40' E 031°42'0 0.0
2016-Jun-21 11:33N 31°40' E 031°42'0 0.0
2016-Jun-21 10:21N 31°40' E 031°42'0 0.0
2016-Jun-21 09:33N 31°40' E 031°42'0 0.0
2016-Jun-21 08:33N 31°40' E 031°42'0 0.0
2016-Jun-21 07:27N 31°40' E 031°42'0 0.0
2016-Jun-21 06:33N 31°40' E 031°42'0 0.0
2016-Jun-21 00:21N 31°40' E 031°42'0 0.0
2016-Jun-20 23:33N 31°40' E 031°42'0 0.0
2016-Jun-20 10:30N 31°40' E 031°42'0 0.0
2016-Jun-20 09:33N 31°40' E 031°42'0 0.0
2016-Jun-20 08:30N 31°40' E 031°42'0 0.0
2016-Jun-20 07:33N 31°40' E 031°42'0 0.0
2016-Jun-20 06:33N 31°40' E 031°42'14 0.4
2016-Jun-18 21:28N 31°27' E 031°46'0 0.0
2016-Jun-18 15:19N 31°27' E 031°46'0 0.0
2016-Jun-18 14:31N 31°27' E 031°46'  

Dump ship's entire track history